createdAt,value
2019-02-20T00:00:42.866Z,36.03
2019-02-20T00:03:14.651Z,32.33
2019-02-20T00:05:46.490Z,35.30
2019-02-20T00:08:17.858Z,34.97
2019-02-20T00:10:49.775Z,35.93
2019-02-20T00:13:21.718Z,32.83
2019-02-20T00:15:53.228Z,37.67
2019-02-20T00:18:25.106Z,36.57
2019-02-20T00:20:56.566Z,38.20
2019-02-20T00:23:27.931Z,35.27
2019-02-20T00:25:59.569Z,36.57
2019-02-20T00:28:31.002Z,37.70
2019-02-20T00:31:02.413Z,40.40
2019-02-20T00:33:33.691Z,42.37
2019-02-20T00:36:05.206Z,40.33
2019-02-20T00:38:36.602Z,39.33
2019-02-20T00:41:07.975Z,35.97
2019-02-20T00:43:41.412Z,39.03
2019-02-20T00:46:21.135Z,33.57
2019-02-20T00:49:11.518Z,42.87
2019-02-20T00:51:56.263Z,41.97
2019-02-20T00:54:27.704Z,37.50
2019-02-20T00:56:59.061Z,46.17
2019-02-20T00:59:30.542Z,48.97
2019-02-20T01:02:01.866Z,42.40
2019-02-20T01:04:33.575Z,45.90
2019-02-20T01:07:05.173Z,40.17
2019-02-20T01:09:36.597Z,35.03
2019-02-20T01:12:08.021Z,40.20
2019-02-20T01:14:39.613Z,38.40
2019-02-20T01:17:10.991Z,37.17
2019-02-20T01:19:42.613Z,38.27
2019-02-20T01:22:14.386Z,37.10
2019-02-20T01:24:45.621Z,40.53
2019-02-20T01:27:17.090Z,38.57
2019-02-20T01:29:48.554Z,36.23
2019-02-20T01:32:19.960Z,38.07
2019-02-20T01:34:51.932Z,34.13
2019-02-20T01:37:23.341Z,42.47
2019-02-20T01:39:54.866Z,40.43
2019-02-20T01:42:26.245Z,44.87
2019-02-20T01:44:58.167Z,44.70
2019-02-20T01:47:29.513Z,37.57
2019-02-20T01:50:00.883Z,38.50
2019-02-20T01:52:32.496Z,39.90
2019-02-20T01:55:04.151Z,41.13
2019-02-20T01:57:35.539Z,43.37
2019-02-20T02:00:09.189Z,43.67
2019-02-20T02:02:40.723Z,42.07
2019-02-20T02:05:15.199Z,39.80
2019-02-20T02:07:45.687Z,37.80
2019-02-20T02:10:17.573Z,37.73
2019-02-20T02:12:48.993Z,37.10
2019-02-20T02:15:20.906Z,39.30
2019-02-20T02:17:52.368Z,36.97
2019-02-20T02:20:23.810Z,39.37
2019-02-20T02:22:55.305Z,38.77
2019-02-20T02:25:26.814Z,39.97
2019-02-20T02:27:58.590Z,34.27
2019-02-20T02:30:30.087Z,37.80
2019-02-20T02:33:02.319Z,34.10
2019-02-20T02:35:33.919Z,37.27
2019-02-20T02:38:05.288Z,40.97
2019-02-20T02:40:37.051Z,41.17
2019-02-20T02:43:08.551Z,41.67
2019-02-20T02:45:40.028Z,38.03
2019-02-20T02:48:11.716Z,40.87
2019-02-20T02:50:43.349Z,41.27
2019-02-20T02:53:15.049Z,41.57
2019-02-20T02:55:46.878Z,40.33
2019-02-20T02:58:18.462Z,39.67
2019-02-20T03:00:50.074Z,42.93
2019-02-20T03:03:21.813Z,39.13
2019-02-20T03:05:53.247Z,39.43
2019-02-20T03:08:25.101Z,40.93
2019-02-20T03:10:56.914Z,43.17
2019-02-20T03:13:28.241Z,41.50
2019-02-20T03:16:00.006Z,39.27
2019-02-20T03:18:31.446Z,37.53
2019-02-20T03:21:03.015Z,36.47
2019-02-20T03:23:40.260Z,37.27
2019-02-20T03:26:07.394Z,38.20
2019-02-20T03:28:40.211Z,38.47
2019-02-20T03:31:11.846Z,37.00
2019-02-20T03:33:43.154Z,38.40
2019-02-20T03:36:15.201Z,36.23
2019-02-20T03:38:46.664Z,38.97
2019-02-20T03:41:18.181Z,39.90
2019-02-20T03:43:49.518Z,45.63
2019-02-20T03:46:20.879Z,38.97
2019-02-20T03:48:52.272Z,44.50
2019-02-20T03:51:24.144Z,42.10
2019-02-20T03:53:56.090Z,43.07
2019-02-20T03:56:28.278Z,45.17
2019-02-20T03:59:00.565Z,46.33
2019-02-20T04:01:32.194Z,51.00
2019-02-20T04:04:03.910Z,47.33
2019-02-20T04:06:35.651Z,47.77
2019-02-20T04:09:07.828Z,45.90
2019-02-20T04:11:39.312Z,41.63
2019-02-20T04:14:11.010Z,41.27
2019-02-20T04:16:42.497Z,43.47
2019-02-20T04:19:13.983Z,41.23
2019-02-20T04:21:45.534Z,47.93
2019-02-20T04:24:16.938Z,44.50
2019-02-20T04:26:48.491Z,41.60
2019-02-20T04:29:20.585Z,42.97
2019-02-20T04:31:51.960Z,41.70
2019-02-20T04:34:23.359Z,42.37
2019-02-20T04:36:54.799Z,45.63
2019-02-20T04:39:26.294Z,46.80
2019-02-20T04:41:57.741Z,50.20
2019-02-20T04:44:29.217Z,48.10
2019-02-20T04:47:01.009Z,49.60
2019-02-20T04:49:32.716Z,53.30
2019-02-20T04:52:04.271Z,49.37
2019-02-20T04:54:35.484Z,44.23
2019-02-20T04:57:07.041Z,46.73
2019-02-20T04:59:38.536Z,47.97
2019-02-20T05:02:10.296Z,42.33
2019-02-20T05:04:41.586Z,43.83
2019-02-20T05:07:13.348Z,43.43
2019-02-20T05:09:44.838Z,45.67
2019-02-20T05:12:17.988Z,44.87
2019-02-20T05:14:49.329Z,48.67
2019-02-20T05:17:20.759Z,48.70
2019-02-20T05:19:52.201Z,46.13
2019-02-20T05:22:23.668Z,51.83
2019-02-20T05:24:54.935Z,51.90
2019-02-20T05:27:26.359Z,55.90
2019-02-20T05:29:57.824Z,50.83
2019-02-20T05:32:29.179Z,50.03
2019-02-20T05:35:00.710Z,51.20
2019-02-20T05:37:33.299Z,48.70
2019-02-20T05:40:05.302Z,53.63
2019-02-20T05:42:36.758Z,50.73
2019-02-20T05:45:08.242Z,53.40
2019-02-20T05:47:39.664Z,51.87
2019-02-20T05:50:11.666Z,57.73
2019-02-20T05:52:43.111Z,61.77
2019-02-20T05:55:14.560Z,59.37
2019-02-20T05:57:46.337Z,55.87
2019-02-20T06:00:17.803Z,52.13
2019-02-20T06:02:50.045Z,53.40
2019-02-20T06:05:21.527Z,47.60
2019-02-20T06:07:53.052Z,51.10
2019-02-20T06:10:24.426Z,56.53
2019-02-20T06:12:55.933Z,45.63
2019-02-20T06:15:27.391Z,58.67
2019-02-20T06:17:59.043Z,60.73
2019-02-20T06:20:30.757Z,58.03
2019-02-20T06:23:02.072Z,59.83
2019-02-20T06:25:33.587Z,58.03
2019-02-20T06:28:05.143Z,59.93
2019-02-20T06:30:36.409Z,62.70
2019-02-20T06:33:07.819Z,57.77
2019-02-20T06:35:39.243Z,53.90
2019-02-20T06:38:11.460Z,58.20
2019-02-20T06:40:43.173Z,54.93
2019-02-20T06:43:15.170Z,57.57
2019-02-20T06:45:46.617Z,57.63
2019-02-20T06:48:18.400Z,59.47
2019-02-20T06:50:49.863Z,59.87
2019-02-20T06:53:22.104Z,57.07
2019-02-20T06:55:53.619Z,62.83
2019-02-20T06:58:25.031Z,56.63
2019-02-20T07:00:56.977Z,60.33
2019-02-20T07:03:29.454Z,65.30
2019-02-20T07:06:48.475Z,62.17
2019-02-20T07:10:17.500Z,66.03
2019-02-20T07:13:27.988Z,62.87
2019-02-20T07:17:00.178Z,60.83
2019-02-20T07:19:52.037Z,62.57
2019-02-20T07:23:09.668Z,55.53
2019-02-20T07:26:04.568Z,59.77
2019-02-20T07:29:43.869Z,57.20
2019-02-20T07:32:19.025Z,53.50
2019-02-20T07:34:50.568Z,50.60
2019-02-20T07:37:22.086Z,46.20
2019-02-20T07:39:53.466Z,49.77
2019-02-20T07:42:24.957Z,52.33
2019-02-20T07:44:56.621Z,53.30
2019-02-20T07:47:28.200Z,54.40
2019-02-20T07:49:59.547Z,50.43
2019-02-20T07:52:30.941Z,59.30
2019-02-20T07:55:02.335Z,50.70
2019-02-20T07:57:34.852Z,52.40
2019-02-20T08:00:08.588Z,52.13
2019-02-20T08:02:40.227Z,53.00
2019-02-20T08:05:11.821Z,47.80
2019-02-20T08:07:43.469Z,47.97
2019-02-20T08:10:15.117Z,50.47
2019-02-20T08:12:46.565Z,49.23
2019-02-20T08:15:17.980Z,46.37
2019-02-20T08:17:49.760Z,45.23
2019-02-20T08:20:21.212Z,48.20
2019-02-20T08:22:52.530Z,47.60
2019-02-20T08:25:23.769Z,40.63
2019-02-20T08:27:55.210Z,43.30
2019-02-20T08:30:26.784Z,44.60
2019-02-20T08:32:58.253Z,45.73
2019-02-20T08:35:29.591Z,42.50
2019-02-20T08:38:01.010Z,40.73
2019-02-20T08:40:32.265Z,41.60
2019-02-20T08:43:03.875Z,40.03
2019-02-20T08:45:36.236Z,39.90
2019-02-20T08:48:07.632Z,36.57
2019-02-20T08:50:39.052Z,36.73
2019-02-20T08:53:10.483Z,41.33
2019-02-20T08:55:41.957Z,38.73
2019-02-20T08:58:13.488Z,42.70
2019-02-20T09:00:45.112Z,31.93
2019-02-20T09:03:17.962Z,32.63
2019-02-20T09:05:49.708Z,33.00
2019-02-20T09:08:21.278Z,36.40
2019-02-20T09:10:53.327Z,29.63
2019-02-20T09:13:25.015Z,31.33
2019-02-20T09:15:56.773Z,29.43
2019-02-20T09:18:28.733Z,31.80
2019-02-20T09:21:00.290Z,26.50
2019-02-20T09:23:33.271Z,28.47
2019-02-20T09:26:05.114Z,31.07
2019-02-20T09:28:38.019Z,27.10
2019-02-20T09:31:09.660Z,27.27
2019-02-20T09:33:41.315Z,28.73
2019-02-20T09:36:13.005Z,23.73
2019-02-20T09:38:44.831Z,29.67
2019-02-20T09:41:16.362Z,27.73
2019-02-20T09:43:49.371Z,25.30
2019-02-20T09:46:21.033Z,25.43
2019-02-20T09:48:52.550Z,23.03
2019-02-20T09:51:24.278Z,21.70
2019-02-20T09:53:55.891Z,23.97
2019-02-20T09:56:27.715Z,23.33
2019-02-20T09:58:59.429Z,22.70
2019-02-20T10:01:32.192Z,20.17
2019-02-20T10:04:03.833Z,20.93
2019-02-20T10:06:35.601Z,21.40
2019-02-20T10:09:07.465Z,21.07
2019-02-20T10:11:40.016Z,22.47
2019-02-20T10:14:11.635Z,20.53
2019-02-20T10:16:43.233Z,23.63
2019-02-20T10:19:15.528Z,27.20
2019-02-20T10:21:47.365Z,22.97
2019-02-20T10:24:19.146Z,23.57
2019-02-20T10:26:50.887Z,27.27
2019-02-20T10:29:22.745Z,25.23
2019-02-20T10:31:54.391Z,23.50
2019-02-20T10:34:26.239Z,23.27
2019-02-20T10:36:58.258Z,21.47
2019-02-20T10:39:30.190Z,20.67
2019-02-20T10:42:01.964Z,21.67
2019-02-20T10:44:33.731Z,22.90
2019-02-20T10:47:05.657Z,19.60
2019-02-20T10:49:37.199Z,22.47
2019-02-20T10:52:08.839Z,22.03
2019-02-20T10:54:40.487Z,21.70
2019-02-20T10:57:12.103Z,21.80
2019-02-20T10:59:44.054Z,21.13
2019-02-20T11:02:16.203Z,19.87
2019-02-20T11:04:50.164Z,21.10
2019-02-20T11:07:22.088Z,18.63
2019-02-20T11:09:53.919Z,21.87
2019-02-20T11:12:25.648Z,21.80
2019-02-20T11:14:57.877Z,21.30
2019-02-20T11:17:29.730Z,22.10
2019-02-20T11:20:01.780Z,21.37
2019-02-20T11:22:34.424Z,20.67
2019-02-20T11:25:06.944Z,20.07
2019-02-20T11:27:39.721Z,18.73
2019-02-20T11:30:15.455Z,20.87
2019-02-20T11:32:47.008Z,18.20
2019-02-20T11:35:18.849Z,19.77
2019-02-20T11:37:50.895Z,21.53
2019-02-20T11:40:22.692Z,17.47
2019-02-20T11:42:54.334Z,18.83
2019-02-20T11:45:26.542Z,17.63
2019-02-20T11:47:58.073Z,14.80
2019-02-20T11:50:30.155Z,16.60
2019-02-20T11:53:01.857Z,18.37
2019-02-20T11:55:33.628Z,18.53
2019-02-20T11:58:05.394Z,18.10
2019-02-20T12:00:37.045Z,15.80
2019-02-20T12:03:08.814Z,17.03
2019-02-20T12:05:40.870Z,15.53
2019-02-20T12:08:12.716Z,16.93
2019-02-20T12:10:44.694Z,15.63
2019-02-20T12:13:16.797Z,16.77
2019-02-20T12:15:48.620Z,15.93
2019-02-20T12:18:20.504Z,18.03
2019-02-20T12:20:52.279Z,16.07
2019-02-20T12:23:24.334Z,15.50
2019-02-20T12:25:56.097Z,15.80
2019-02-20T12:28:27.803Z,15.70
2019-02-20T12:30:59.457Z,15.10
2019-02-20T12:33:31.039Z,12.90
2019-02-20T12:36:02.895Z,14.90
2019-02-20T12:38:34.505Z,16.60
2019-02-20T12:41:06.327Z,11.83
2019-02-20T12:43:37.865Z,11.53
2019-02-20T12:46:09.575Z,12.13
2019-02-20T12:48:41.415Z,10.17
2019-02-20T12:51:13.074Z,12.53
2019-02-20T12:53:46.120Z,12.50
2019-02-20T12:56:17.769Z,11.50
2019-02-20T12:58:49.360Z,13.17
2019-02-20T13:01:21.084Z,12.87
2019-02-20T13:03:52.727Z,12.70
2019-02-20T13:06:24.488Z,15.43
2019-02-20T13:08:56.264Z,12.50
2019-02-20T13:11:27.917Z,10.33
2019-02-20T13:13:59.674Z,9.90
2019-02-20T13:16:31.267Z,12.37
2019-02-20T13:19:02.874Z,12.73
2019-02-20T13:21:34.844Z,10.77
2019-02-20T13:24:07.447Z,10.43
2019-02-20T13:26:39.101Z,12.33
2019-02-20T13:29:11.018Z,8.43
